Time;durP1;ratioP1;P1;durP2;ratioP2;P2;SDS_P1;SDS_P2;PMS_P1;PMS_P2;Temp;Humidity;BMP_temperature;BMP_pressure;BME280_temperature;BME280_humidity;BME280_pressure;Samples;Min_cycle;Max_cycle;Signal;HPM_P1;HPM_P2
2023/11/03 00:00:12;;;;;;;1.03;1.03;;;15.00;99.90;;;;;;5107761;28;20179;-93
2023/11/03 00:02:39;;;;;;;0.30;0.20;;;15.00;99.90;;;;;;5107957;28;20413;-88
2023/11/03 00:05:10;;;;;;;0.30;0.20;;;15.00;99.90;;;;;;5106345;28;20431;-88
2023/11/03 00:07:36;;;;;;;0.30;0.20;;;14.90;99.90;;;;;;5107045;28;20424;-92
2023/11/03 00:10:06;;;;;;;0.30;0.20;;;14.90;99.90;;;;;;5106899;28;20908;-88
2023/11/03 00:12:34;;;;;;;0.30;0.20;;;14.90;99.90;;;;;;5107504;28;20260;-92
2023/11/03 00:15:00;;;;;;;1.10;1.07;;;14.90;99.90;;;;;;5106006;28;20694;-88
2023/11/03 00:17:26;;;;;;;0.30;0.20;;;14.90;99.90;;;;;;5107761;28;20639;-88
2023/11/03 00:19:53;;;;;;;0.73;0.73;;;14.90;99.90;;;;;;5106618;28;20450;-92
2023/11/03 00:22:18;;;;;;;0.30;0.20;;;15.00;99.90;;;;;;5106138;28;20912;-93
2023/11/03 00:24:44;;;;;;;0.30;0.20;;;14.90;99.90;;;;;;5106588;28;20611;-89
2023/11/03 00:27:10;;;;;;;0.30;0.20;;;14.90;99.90;;;;;;5106330;28;20465;-92
2023/11/03 00:29:36;;;;;;;2.00;1.90;;;14.90;99.90;;;;;;5106052;28;20797;-93
2023/11/03 00:32:03;;;;;;;0.30;0.20;;;14.80;99.90;;;;;;5108040;28;20412;-90
2023/11/03 00:34:29;;;;;;;0.30;0.20;;;14.80;99.90;;;;;;5106323;28;20247;-92
2023/11/03 00:36:55;;;;;;;0.30;0.20;;;14.80;99.90;;;;;;5106568;28;20467;-88
2023/11/03 00:39:21;;;;;;;0.30;0.20;;;14.70;99.90;;;;;;5107024;28;20435;-93
2023/11/03 00:41:49;;;;;;;0.30;0.20;;;14.70;99.90;;;;;;5106636;28;20222;-88
2023/11/03 00:44:17;;;;;;;0.30;0.20;;;14.70;99.90;;;;;;5107064;28;20933;-93
2023/11/03 00:46:43;;;;;;;0.30;0.20;;;14.70;99.90;;;;;;5106966;28;20432;-89
2023/11/03 00:49:10;;;;;;;0.30;0.30;;;14.80;99.90;;;;;;5105243;28;20432;-92
2023/11/03 00:51:36;;;;;;;0.30;0.20;;;14.80;99.90;;;;;;5105668;28;20428;-88
2023/11/03 00:54:06;;;;;;;0.30;0.20;;;14.80;99.90;;;;;;5106697;28;20438;-88
2023/11/03 00:56:33;;;;;;;0.30;0.20;;;14.80;99.90;;;;;;5105363;28;20460;-88
2023/11/03 00:59:00;;;;;;;0.30;0.20;;;14.70;99.90;;;;;;5106097;28;20440;-91
2023/11/03 01:01:26;;;;;;;0.30;0.20;;;14.70;99.90;;;;;;5108530;28;20947;-92
2023/11/03 01:03:54;;;;;;;0.30;0.30;;;14.70;99.90;;;;;;5108746;28;20501;-91
2023/11/03 01:06:22;;;;;;;0.30;0.20;;;14.70;99.90;;;;;;5123677;28;20416;-88
2023/11/03 01:08:47;;;;;;;0.40;0.40;;;14.70;99.90;;;;;;5111337;28;20682;-88
2023/11/03 01:11:13;;;;;;;0.30;0.20;;;14.70;99.90;;;;;;5106746;28;20408;-88
2023/11/03 01:13:42;;;;;;;0.40;0.20;;;14.70;99.90;;;;;;5106222;28;20660;-92
2023/11/03 01:16:08;;;;;;;0.30;0.20;;;14.80;99.90;;;;;;5107070;28;20290;-91
2023/11/03 01:18:39;;;;;;;0.30;0.20;;;14.80;99.90;;;;;;5104864;28;20416;-92
2023/11/03 01:21:12;;;;;;;0.30;0.20;;;14.90;99.90;;;;;;5105250;28;20450;-88
2023/11/03 01:23:41;;;;;;;0.30;0.20;;;14.90;99.90;;;;;;5105395;28;20467;-88
2023/11/03 01:26:08;;;;;;;0.30;0.20;;;14.80;99.90;;;;;;5105607;28;20427;-88
2023/11/03 01:28:34;;;;;;;0.30;0.20;;;14.80;99.90;;;;;;5108191;28;20992;-92
2023/11/03 01:31:00;;;;;;;0.30;0.20;;;14.70;99.90;;;;;;5106683;28;20458;-92
2023/11/03 01:33:26;;;;;;;0.30;0.20;;;14.70;99.90;;;;;;5105977;28;20439;-88
2023/11/03 01:35:52;;;;;;;0.30;0.30;;;14.70;99.90;;;;;;5104829;28;20488;-88
2023/11/03 01:38:18;;;;;;;0.40;0.40;;;14.70;99.90;;;;;;5105944;28;20195;-93
2023/11/03 01:40:44;;;;;;;0.30;0.20;;;14.80;99.90;;;;;;5108575;28;20188;-92
2023/11/03 01:43:09;;;;;;;9.80;8.83;;;14.80;99.90;;;;;;5110574;28;20528;-88
2023/11/03 01:45:36;;;;;;;0.30;0.20;;;14.90;99.90;;;;;;5110688;28;20186;-92
2023/11/03 01:48:02;;;;;;;0.30;0.20;;;14.90;99.90;;;;;;5106655;28;20596;-90
2023/11/03 01:50:28;;;;;;;0.30;0.20;;;14.90;99.90;;;;;;5104876;28;20566;-91
2023/11/03 01:52:55;;;;;;;0.30;0.20;;;14.80;99.90;;;;;;5105886;28;20436;-92
2023/11/03 01:55:22;;;;;;;0.30;0.20;;;14.90;99.90;;;;;;5103332;28;20599;-92
2023/11/03 01:57:48;;;;;;;0.30;0.20;;;14.90;99.90;;;;;;5106709;28;21048;-88
2023/11/03 02:00:14;;;;;;;0.30;0.20;;;15.00;99.90;;;;;;5105997;28;20451;-88
2023/11/03 02:02:40;;;;;;;0.30;0.20;;;15.00;99.90;;;;;;5106204;28;20509;-93
2023/11/03 02:05:07;;;;;;;0.30;0.20;;;15.00;99.90;;;;;;5106125;28;20420;-92
2023/11/03 02:07:33;;;;;;;0.30;0.20;;;15.00;99.90;;;;;;5106204;28;20447;-88
2023/11/03 02:09:59;;;;;;;0.30;0.20;;;15.00;99.90;;;;;;5106156;28;20396;-88
2023/11/03 02:12:25;;;;;;;0.30;0.20;;;15.00;99.90;;;;;;5108451;28;20468;-91
2023/11/03 02:14:51;;;;;;;0.30;0.30;;;15.00;99.90;;;;;;5108352;28;20465;-88
2023/11/03 02:17:18;;;;;;;0.30;0.20;;;15.10;99.90;;;;;;5108639;28;20215;-93
2023/11/03 02:19:44;;;;;;;9.07;7.53;;;15.00;99.90;;;;;;5108636;28;20444;-91
2023/11/03 02:22:10;;;;;;;0.93;0.93;;;15.00;99.90;;;;;;5109325;28;20773;-88
2023/11/03 02:24:36;;;;;;;1.23;1.23;;;15.00;99.90;;;;;;5109218;28;20430;-92
2023/11/03 02:27:01;;;;;;;0.30;0.20;;;15.00;99.90;;;;;;5110678;28;20324;-90
2023/11/03 02:29:27;;;;;;;0.30;0.20;;;15.10;99.90;;;;;;5108696;28;20207;-93
2023/11/03 02:31:53;;;;;;;0.30;0.20;;;15.10;99.90;;;;;;5110124;28;20184;-92
2023/11/03 02:34:18;;;;;;;0.30;0.20;;;15.10;99.90;;;;;;5108169;28;20231;-88
2023/11/03 02:36:44;;;;;;;0.30;0.20;;;15.10;99.90;;;;;;5108721;28;20222;-92
2023/11/03 02:39:10;;;;;;;0.30;0.20;;;15.10;99.90;;;;;;5109721;28;20195;-88
2023/11/03 02:41:36;;;;;;;0.30;0.20;;;15.10;99.90;;;;;;5110311;28;20454;-87
2023/11/03 02:44:03;;;;;;;0.30;0.20;;;15.00;99.90;;;;;;5112465;28;20839;-93
2023/11/03 02:46:29;;;;;;;0.30;0.20;;;15.10;99.90;;;;;;5108349;28;20708;-92
2023/11/03 02:48:56;;;;;;;0.30;0.20;;;15.10;99.90;;;;;;5109250;28;20427;-88
2023/11/03 02:51:22;;;;;;;0.40;0.20;;;15.10;99.90;;;;;;5108351;28;20459;-88
2023/11/03 02:53:48;;;;;;;0.50;0.50;;;15.10;99.90;;;;;;5108250;28;20713;-92
2023/11/03 02:56:27;;;;;;;0.30;0.20;;;15.10;99.90;;;;;;5107159;28;20470;-89
2023/11/03 02:58:53;;;;;;;0.30;0.20;;;15.10;99.90;;;;;;5109464;28;20733;-92
2023/11/03 03:01:31;;;;;;;0.30;0.20;;;15.10;99.90;;;;;;5107588;28;20790;-88
2023/11/03 03:03:57;;;;;;;0.30;0.20;;;15.10;99.90;;;;;;5108904;28;20423;-92
2023/11/03 03:06:23;;;;;;;0.30;0.20;;;15.10;99.90;;;;;;5107957;28;20431;-89
2023/11/03 03:08:49;;;;;;;0.30;0.20;;;15.10;99.90;;;;;;5108414;28;20768;-93
2023/11/03 03:11:15;;;;;;;1.13;1.13;;;15.00;99.90;;;;;;5109058;28;20183;-88
2023/11/03 03:13:44;;;;;;;0.30;0.20;;;15.00;99.90;;;;;;5107382;28;20431;-92
2023/11/03 03:16:10;;;;;;;0.30;0.20;;;15.00;99.90;;;;;;5107425;28;20496;-92
2023/11/03 03:18:36;;;;;;;0.30;0.20;;;15.00;99.90;;;;;;5108308;28;20891;-88
2023/11/03 03:21:02;;;;;;;0.30;0.20;;;15.00;99.90;;;;;;5108618;28;20594;-92
2023/11/03 03:23:28;;;;;;;0.30;0.20;;;15.00;99.90;;;;;;5106579;28;20788;-88
2023/11/03 03:25:53;;;;;;;0.30;0.30;;;15.00;99.90;;;;;;5107105;28;20427;-88
2023/11/03 03:28:20;;;;;;;0.30;0.20;;;15.00;99.90;;;;;;5108558;28;20200;-93
2023/11/03 03:30:45;;;;;;;0.30;0.20;;;15.00;99.90;;;;;;5108557;28;20223;-91
2023/11/03 03:33:11;;;;;;;0.83;0.83;;;14.90;99.90;;;;;;5109132;28;20451;-88
2023/11/03 03:35:37;;;;;;;0.30;0.20;;;14.90;99.90;;;;;;5109712;28;20287;-88
2023/11/03 03:38:03;;;;;;;0.30;0.20;;;14.90;99.90;;;;;;5106961;28;20283;-92
2023/11/03 03:40:28;;;;;;;0.30;0.20;;;14.90;99.90;;;;;;5106802;28;20183;-88
2023/11/03 03:42:56;;;;;;;0.30;0.20;;;15.00;99.90;;;;;;5107103;28;20512;-92
2023/11/03 03:45:21;;;;;;;0.30;0.20;;;15.00;99.90;;;;;;5107137;28;20183;-88
2023/11/03 03:47:47;;;;;;;0.30;0.20;;;15.00;99.90;;;;;;5115528;28;20476;-87
2023/11/03 03:50:13;;;;;;;0.60;0.60;;;15.00;99.90;;;;;;5117305;28;20269;-87
2023/11/03 03:52:38;;;;;;;0.30;0.20;;;15.00;99.90;;;;;;5109599;28;20807;-93
2023/11/03 03:55:04;;;;;;;0.30;0.20;;;15.00;99.90;;;;;;5108195;28;20503;-88
2023/11/03 03:57:30;;;;;;;0.30;0.20;;;15.00;99.90;;;;;;5106997;28;20250;-88
2023/11/03 03:59:56;;;;;;;0.30;0.20;;;15.00;99.90;;;;;;5107487;28;20398;-92
2023/11/03 04:02:21;;;;;;;0.30;0.20;;;15.00;99.90;;;;;;5108741;28;20240;-87
2023/11/03 04:04:47;;;;;;;0.73;0.73;;;15.00;99.90;;;;;;5106611;28;20713;-89
2023/11/03 04:07:13;;;;;;;0.30;0.20;;;15.00;99.90;;;;;;5106746;28;20191;-88
2023/11/03 04:09:39;;;;;;;0.30;0.20;;;15.00;99.90;;;;;;5106950;28;20267;-88
2023/11/03 04:12:05;;;;;;;0.30;0.20;;;15.00;99.90;;;;;;5106760;28;20537;-92
2023/11/03 04:14:30;;;;;;;0.30;0.20;;;15.00;99.90;;;;;;5108054;28;20420;-92
2023/11/03 04:16:56;;;;;;;0.60;0.60;;;15.10;99.90;;;;;;5106470;28;20467;-92
2023/11/03 04:19:22;;;;;;;12.20;11.13;;;15.10;99.90;;;;;;5106751;28;20514;-88
2023/11/03 04:21:48;;;;;;;0.30;0.20;;;15.10;99.90;;;;;;5107561;28;20197;-89
2023/11/03 04:24:13;;;;;;;0.30;0.30;;;15.10;99.90;;;;;;5105950;28;20672;-88
2023/11/03 04:26:39;;;;;;;0.30;0.20;;;15.20;99.90;;;;;;5106271;28;20670;-92
2023/11/03 04:29:05;;;;;;;0.67;0.67;;;15.20;99.90;;;;;;5107284;28;20447;-88
2023/11/03 04:31:31;;;;;;;0.30;0.20;;;15.20;99.90;;;;;;5106584;28;20424;-92
2023/11/03 04:33:56;;;;;;;0.30;0.20;;;15.20;99.90;;;;;;5106419;28;20220;-88
2023/11/03 04:36:22;;;;;;;0.30;0.20;;;15.20;99.90;;;;;;5106333;28;20608;-89
2023/11/03 04:38:48;;;;;;;0.30;0.20;;;15.20;99.90;;;;;;5104772;28;20249;-88
2023/11/03 04:41:14;;;;;;;0.40;0.40;;;15.20;99.90;;;;;;5108676;28;20175;-88
2023/11/03 04:43:41;;;;;;;0.70;0.70;;;15.20;99.90;;;;;;5110393;28;20207;-89
2023/11/03 04:46:08;;;;;;;0.30;0.20;;;15.20;99.90;;;;;;5109798;27;20212;-93
2023/11/03 04:48:35;;;;;;;0.30;0.30;;;15.20;99.90;;;;;;5114987;28;20451;-92
2023/11/03 04:51:02;;;;;;;0.30;0.20;;;15.20;99.90;;;;;;5106580;28;20463;-92
2023/11/03 04:53:27;;;;;;;2.37;1.47;;;15.30;99.90;;;;;;5106505;28;20440;-88
2023/11/03 04:55:53;;;;;;;0.30;0.20;;;15.30;99.90;;;;;;5105788;28;20423;-92
2023/11/03 04:58:19;;;;;;;0.30;0.20;;;15.30;99.90;;;;;;5105814;28;20286;-92
2023/11/03 05:00:46;;;;;;;0.40;0.40;;;15.30;99.90;;;;;;5107015;28;20175;-92
2023/11/03 05:03:12;;;;;;;0.30;0.20;;;15.30;99.90;;;;;;5105509;28;20755;-88
2023/11/03 05:05:38;;;;;;;0.30;0.20;;;15.30;99.90;;;;;;5105819;28;20953;-89
2023/11/03 05:08:04;;;;;;;0.30;0.20;;;15.30;99.90;;;;;;5104564;28;20283;-92
2023/11/03 05:10:30;;;;;;;0.30;0.20;;;15.30;99.90;;;;;;5106609;28;20258;-93
2023/11/03 05:12:56;;;;;;;0.30;0.20;;;15.30;99.90;;;;;;5105840;28;20512;-88
2023/11/03 05:15:21;;;;;;;0.30;0.20;;;15.30;99.90;;;;;;5105565;28;20428;-89
2023/11/03 05:17:47;;;;;;;0.30;0.20;;;15.30;99.90;;;;;;5108865;28;20924;-92
2023/11/03 05:20:13;;;;;;;0.30;0.20;;;15.30;99.90;;;;;;5105307;28;20624;-92
2023/11/03 05:22:39;;;;;;;0.30;0.30;;;15.40;99.90;;;;;;5102182;28;20226;-88
2023/11/03 05:25:06;;;;;;;0.30;0.20;;;15.40;99.90;;;;;;5095167;28;20444;-92
2023/11/03 05:27:32;;;;;;;0.43;0.40;;;15.40;99.90;;;;;;5093784;28;20649;-88
2023/11/03 05:30:00;;;;;;;0.30;0.20;;;15.40;99.90;;;;;;5097028;28;20746;-92
2023/11/03 05:32:26;;;;;;;0.30;0.20;;;15.40;99.90;;;;;;5086507;28;20183;-87
2023/11/03 05:34:52;;;;;;;0.30;0.20;;;15.50;99.90;;;;;;5084090;28;20468;-92
2023/11/03 05:37:17;;;;;;;0.30;0.23;;;15.50;99.90;;;;;;5083714;28;20220;-90
2023/11/03 05:39:43;;;;;;;0.30;0.20;;;15.50;99.90;;;;;;5093849;28;20684;-92
2023/11/03 05:42:09;;;;;;;0.30;0.20;;;15.50;99.90;;;;;;5097820;28;20236;-87
2023/11/03 05:44:35;;;;;;;0.30;0.20;;;15.50;99.90;;;;;;5105093;28;20199;-92
2023/11/03 05:47:01;;;;;;;1.37;1.23;;;15.50;99.90;;;;;;5109880;28;20623;-88
2023/11/03 05:49:27;;;;;;;0.40;0.40;;;15.50;99.90;;;;;;5109742;27;20769;-88
2023/11/03 05:51:54;;;;;;;0.30;0.20;;;15.50;99.90;;;;;;5107056;28;20905;-92
2023/11/03 05:54:19;;;;;;;1.47;0.87;;;15.50;99.90;;;;;;5108649;28;20475;-92
2023/11/03 05:56:45;;;;;;;0.30;0.20;;;15.60;99.90;;;;;;5108584;28;20968;-88
2023/11/03 05:59:11;;;;;;;0.30;0.20;;;15.70;99.90;;;;;;5108271;28;20192;-93
2023/11/03 06:01:37;;;;;;;0.30;0.20;;;15.70;99.90;;;;;;5107909;28;20416;-92
2023/11/03 06:04:03;;;;;;;0.30;0.20;;;15.70;99.90;;;;;;5109638;28;20908;-92
2023/11/03 06:06:29;;;;;;;0.30;0.20;;;15.70;99.90;;;;;;5105997;28;20461;-92
2023/11/03 06:08:55;;;;;;;0.30;0.20;;;15.70;99.90;;;;;;5096943;28;20188;-88
2023/11/03 06:11:22;;;;;;;0.30;0.20;;;15.80;99.90;;;;;;5102715;28;20450;-92
2023/11/03 06:13:48;;;;;;;0.30;0.20;;;15.80;99.90;;;;;;5108122;28;20233;-88
2023/11/03 06:16:14;;;;;;;0.30;0.20;;;15.80;99.90;;;;;;5109100;28;20507;-93
2023/11/03 06:18:41;;;;;;;0.30;0.20;;;15.80;99.90;;;;;;5110032;28;21118;-92
2023/11/03 06:21:07;;;;;;;0.40;0.40;;;15.80;99.90;;;;;;5107814;28;20349;-92
2023/11/03 06:23:33;;;;;;;0.30;0.20;;;15.80;99.90;;;;;;5108327;28;20953;-92
2023/11/03 06:26:02;;;;;;;0.30;0.20;;;15.80;99.90;;;;;;5108186;28;20191;-92
2023/11/03 06:28:27;;;;;;;0.30;0.20;;;15.90;99.90;;;;;;5108972;28;20344;-88
2023/11/03 06:30:53;;;;;;;0.30;0.20;;;15.90;99.90;;;;;;5108645;28;20420;-87
2023/11/03 06:33:20;;;;;;;0.50;0.50;;;15.90;99.90;;;;;;5108606;28;20199;-93
2023/11/03 06:35:49;;;;;;;0.30;0.20;;;16.00;99.90;;;;;;5107717;28;20719;-92
2023/11/03 06:38:15;;;;;;;0.30;0.20;;;15.90;99.90;;;;;;5105371;28;20501;-92
2023/11/03 06:40:40;;;;;;;0.30;0.20;;;15.90;99.90;;;;;;5087180;28;21059;-87
2023/11/03 06:43:06;;;;;;;0.30;0.20;;;16.00;99.90;;;;;;5100319;28;20195;-92
2023/11/03 06:45:34;;;;;;;0.30;0.20;;;16.00;99.90;;;;;;5110446;28;20176;-88
2023/11/03 06:48:01;;;;;;;0.30;0.20;;;16.00;99.90;;;;;;5106985;28;20192;-92
2023/11/03 06:50:27;;;;;;;0.93;0.93;;;16.10;99.90;;;;;;5108386;28;20420;-92
2023/11/03 06:52:56;;;;;;;2.20;2.10;;;16.10;99.90;;;;;;5107655;28;20478;-88
2023/11/03 06:55:21;;;;;;;0.30;0.20;;;16.10;99.90;;;;;;5101298;28;20772;-88
2023/11/03 06:57:48;;;;;;;0.30;0.20;;;16.20;99.90;;;;;;5100586;28;20502;-92
2023/11/03 07:00:14;;;;;;;0.30;0.20;;;16.20;99.90;;;;;;5094402;28;20822;-88
2023/11/03 07:02:41;;;;;;;0.30;0.20;;;16.30;99.90;;;;;;5087756;28;20473;-92
2023/11/03 07:05:08;;;;;;;1.23;1.13;;;16.30;99.90;;;;;;5087847;28;20434;-92
2023/11/03 07:07:34;;;;;;;0.30;0.20;;;16.30;99.90;;;;;;5085267;28;21113;-92
2023/11/03 07:10:01;;;;;;;0.30;0.20;;;16.30;99.90;;;;;;5085074;28;20786;-88
2023/11/03 07:12:26;;;;;;;0.30;0.20;;;16.40;99.90;;;;;;5089738;28;20799;-92
2023/11/03 07:14:52;;;;;;;0.40;0.40;;;16.40;99.90;;;;;;5103871;28;20504;-92
2023/11/03 07:17:18;;;;;;;0.30;0.20;;;16.40;99.90;;;;;;5110832;28;20280;-92
2023/11/03 07:19:50;;;;;;;0.77;0.57;;;16.50;99.90;;;;;;5097960;28;20445;-87
2023/11/03 07:22:16;;;;;;;0.30;0.20;;;16.50;99.90;;;;;;5083827;28;20517;-92
2023/11/03 07:24:45;;;;;;;0.30;0.20;;;16.50;99.90;;;;;;5084306;28;20437;-92
2023/11/03 07:27:11;;;;;;;0.87;0.87;;;16.50;99.90;;;;;;5085386;28;20424;-88
2023/11/03 07:29:37;;;;;;;0.53;0.50;;;16.50;99.90;;;;;;5084814;28;20429;-89
2023/11/03 07:32:04;;;;;;;0.30;0.20;;;16.60;99.90;;;;;;5084797;28;20413;-92
2023/11/03 07:34:30;;;;;;;0.30;0.20;;;16.60;99.90;;;;;;5087708;28;20234;-88
2023/11/03 07:36:57;;;;;;;0.30;0.20;;;16.60;99.90;;;;;;5084464;28;21000;-87
2023/11/03 07:39:25;;;;;;;0.30;0.20;;;16.70;99.90;;;;;;5087537;28;20267;-92
2023/11/03 07:41:51;;;;;;;0.30;0.20;;;16.70;99.90;;;;;;5085987;28;20862;-92
2023/11/03 07:44:17;;;;;;;0.30;0.20;;;16.70;99.90;;;;;;5086174;28;20683;-88
2023/11/03 07:46:43;;;;;;;0.30;0.20;;;16.70;99.90;;;;;;5084238;28;20180;-92
2023/11/03 07:49:12;;;;;;;0.50;0.40;;;16.70;99.90;;;;;;5087230;28;20454;-88
2023/11/03 07:51:38;;;;;;;0.40;0.30;;;16.70;99.90;;;;;;5096129;28;20191;-88
2023/11/03 07:54:05;;;;;;;0.30;0.20;;;16.70;99.90;;;;;;5091553;28;20445;-92
2023/11/03 07:56:31;;;;;;;0.30;0.20;;;16.70;99.90;;;;;;5081234;28;20216;-92
2023/11/03 07:58:57;;;;;;;0.30;0.30;;;16.70;99.90;;;;;;5084049;28;20421;-88
2023/11/03 08:01:23;;;;;;;0.30;0.20;;;16.70;99.90;;;;;;5081214;28;20201;-93
2023/11/03 08:03:49;;;;;;;0.30;0.20;;;16.70;99.90;;;;;;5099475;28;20324;-88
2023/11/03 08:06:15;;;;;;;0.30;0.20;;;16.70;99.90;;;;;;5104638;28;20416;-89
2023/11/03 08:08:41;;;;;;;0.30;0.20;;;16.70;99.90;;;;;;5108980;28;20485;-88
2023/11/03 08:11:08;;;;;;;0.30;0.20;;;16.70;99.90;;;;;;5110254;28;20168;-93
2023/11/03 08:13:34;;;;;;;0.30;0.20;;;16.70;99.90;;;;;;5108911;28;20499;-88
2023/11/03 08:16:01;;;;;;;0.30;0.20;;;16.70;99.90;;;;;;5100663;28;20456;-93
2023/11/03 08:18:30;;;;;;;0.30;0.20;;;16.70;99.90;;;;;;5103997;28;20231;-93
2023/11/03 08:20:56;;;;;;;0.30;0.30;;;16.70;99.90;;;;;;5102341;28;20433;-92
2023/11/03 08:23:22;;;;;;;6.57;1.90;;;16.70;99.90;;;;;;5101644;28;20456;-88
2023/11/03 08:25:48;;;;;;;0.30;0.20;;;16.70;99.90;;;;;;5103626;28;20420;-89
2023/11/03 08:28:14;;;;;;;0.30;0.20;;;16.70;99.90;;;;;;5103279;28;20606;-92
2023/11/03 08:30:39;;;;;;;1.03;0.77;;;16.70;99.90;;;;;;5103279;28;20187;-94
2023/11/03 08:33:09;;;;;;;0.30;0.20;;;16.70;99.90;;;;;;5104764;28;20472;-92
2023/11/03 08:35:37;;;;;;;0.30;0.20;;;16.70;99.90;;;;;;5108042;28;20771;-88
2023/11/03 08:38:05;;;;;;;0.30;0.20;;;16.70;99.90;;;;;;5108180;28;21109;-88
2023/11/03 08:40:39;;;;;;;0.30;0.20;;;16.70;99.90;;;;;;5107732;28;20450;-88
2023/11/03 08:43:04;;;;;;;0.40;0.40;;;16.70;99.90;;;;;;5104395;28;20204;-92
2023/11/03 08:45:30;;;;;;;0.30;0.20;;;16.70;99.90;;;;;;5103799;28;20424;-93
2023/11/03 08:47:56;;;;;;;0.30;0.23;;;16.70;99.90;;;;;;5105339;28;20272;-91
2023/11/03 08:50:22;;;;;;;0.53;0.53;;;16.70;99.90;;;;;;5093971;28;20688;-89
2023/11/03 08:52:47;;;;;;;0.30;0.20;;;16.70;99.90;;;;;;5083756;28;20219;-88
2023/11/03 08:55:16;;;;;;;0.30;0.20;;;16.80;99.90;;;;;;5081144;28;20199;-88
2023/11/03 08:57:43;;;;;;;0.30;0.20;;;16.90;99.90;;;;;;5092758;28;20600;-88
2023/11/03 09:00:11;;;;;;;0.60;0.60;;;16.90;99.90;;;;;;5098543;28;20422;-92
2023/11/03 09:02:48;;;;;;;0.30;0.20;;;17.00;99.90;;;;;;5090753;28;20476;-88
2023/11/03 09:05:14;;;;;;;0.30;0.20;;;17.00;99.90;;;;;;5092810;28;20459;-93
2023/11/03 09:07:41;;;;;;;0.30;0.20;;;17.00;99.90;;;;;;5103905;28;20803;-89
2023/11/03 09:10:12;;;;;;;0.30;0.20;;;17.00;99.90;;;;;;5090754;28;20466;-88
2023/11/03 09:12:41;;;;;;;0.30;0.20;;;17.10;99.90;;;;;;5082677;28;20771;-88
2023/11/03 09:15:07;;;;;;;0.30;0.20;;;17.20;99.90;;;;;;5081940;28;20415;-92
2023/11/03 09:17:35;;;;;;;0.30;0.20;;;17.10;99.90;;;;;;5085913;28;20680;-88
2023/11/03 09:20:04;;;;;;;83.27;2.97;;;17.20;99.90;;;;;;5092600;28;20422;-89
2023/11/03 09:22:30;;;;;;;0.30;0.20;;;17.20;99.90;;;;;;5099260;28;20932;-92
2023/11/03 09:24:57;;;;;;;0.30;0.20;;;17.20;99.90;;;;;;5101401;28;20658;-88
2023/11/03 09:27:26;;;;;;;0.30;0.20;;;17.30;99.90;;;;;;5106748;28;20413;-93
2023/11/03 09:29:52;;;;;;;0.40;0.20;;;17.30;99.90;;;;;;5108820;28;20692;-92
2023/11/03 09:32:18;;;;;;;0.30;0.20;;;17.30;99.90;;;;;;5110772;28;21024;-88
2023/11/03 09:34:47;;;;;;;0.30;0.20;;;17.40;99.90;;;;;;5098730;28;20875;-92
2023/11/03 09:37:13;;;;;;;0.30;0.20;;;17.40;99.90;;;;;;5087920;28;20813;-92
2023/11/03 09:39:43;;;;;;;0.30;0.20;;;17.40;99.90;;;;;;5109968;28;20543;-92
2023/11/03 09:42:11;;;;;;;0.40;0.40;;;17.40;99.90;;;;;;5109340;28;20666;-92
2023/11/03 09:44:37;;;;;;;0.30;0.20;;;17.40;99.90;;;;;;5118622;28;21102;-92
2023/11/03 09:47:10;;;;;;;0.30;0.20;;;17.40;99.90;;;;;;5107852;28;21016;-89
2023/11/03 09:49:36;;;;;;;3.50;2.40;;;17.50;99.90;;;;;;5100880;27;20445;-87
2023/11/03 09:52:06;;;;;;;2.20;2.10;;;17.60;99.90;;;;;;5129913;27;20424;-92
2023/11/03 09:54:37;;;;;;;0.30;0.20;;;17.60;99.90;;;;;;5103385;27;20465;-88
2023/11/03 09:57:03;;;;;;;1.13;1.13;;;17.70;99.90;;;;;;5094914;28;20986;-89
2023/11/03 09:59:35;;;;;;;0.40;0.20;;;17.80;99.90;;;;;;5102869;28;20433;-92
2023/11/03 10:02:09;;;;;;;1.63;1.53;;;17.90;99.90;;;;;;5104266;27;20445;-88
2023/11/03 10:04:39;;;;;;;0.40;0.40;;;17.90;99.90;;;;;;5094147;28;20461;-93
2023/11/03 10:07:06;;;;;;;0.30;0.30;;;17.90;99.90;;;;;;5108696;28;20416;-89
2023/11/03 10:09:32;;;;;;;0.30;0.20;;;17.90;99.90;;;;;;5093806;28;20772;-91
2023/11/03 10:14:48;;;;;;;4.10;1.60;;;18.00;99.90;;;;;;5118254;27;20600;-79
2023/11/03 10:17:17;;;;;;;0.40;0.20;;;18.00;99.90;;;;;;5125777;27;20991;-90
2023/11/03 10:19:43;;;;;;;0.30;0.20;;;18.00;99.90;;;;;;5118444;27;20204;-89
2023/11/03 10:22:10;;;;;;;0.30;0.20;;;17.90;99.90;;;;;;5112526;28;20425;-88
2023/11/03 10:24:37;;;;;;;0.30;0.20;;;17.80;99.90;;;;;;5111276;28;20460;-78
2023/11/03 10:27:03;;;;;;;0.30;0.20;;;17.80;99.90;;;;;;5103182;28;20438;-78
2023/11/03 10:29:30;;;;;;;0.30;0.30;;;17.80;99.90;;;;;;5097226;28;20450;-78
2023/11/03 10:31:56;;;;;;;0.30;0.20;;;17.80;99.90;;;;;;5105778;28;20502;-90
2023/11/03 10:34:24;;;;;;;0.90;0.73;;;17.70;99.90;;;;;;5114490;27;21288;-79
2023/11/03 10:36:51;;;;;;;0.30;0.20;;;17.80;99.90;;;;;;5116760;28;20799;-88
2023/11/03 10:39:17;;;;;;;0.30;0.30;;;17.90;99.90;;;;;;5107959;27;20814;-78
2023/11/03 10:41:44;;;;;;;0.30;0.20;;;17.90;99.90;;;;;;5114806;27;20920;-78
2023/11/03 10:44:16;;;;;;;0.30;0.20;;;17.90;99.90;;;;;;5134024;27;21123;-91
2023/11/03 10:46:53;;;;;;;0.30;0.20;;;17.80;99.90;;;;;;5119169;28;20803;-90
2023/11/03 10:49:40;;;;;;;0.30;0.20;;;17.90;99.90;;;;;;5119816;27;20450;-78
2023/11/03 10:52:24;;;;;;;0.30;0.20;;;18.00;99.90;;;;;;5100614;28;20551;-90
2023/11/03 10:54:56;;;;;;;0.30;0.20;;;18.00;99.90;;;;;;5118695;28;20810;-90
2023/11/03 10:57:22;;;;;;;0.40;0.20;;;18.00;99.90;;;;;;5117707;28;21009;-88
2023/11/03 10:59:59;;;;;;;0.30;0.20;;;18.00;99.90;;;;;;5118374;27;20465;-90
2023/11/03 11:02:35;;;;;;;0.30;0.20;;;18.00;99.90;;;;;;5116756;28;20173;-90
2023/11/03 11:05:26;;;;;;;0.40;0.30;;;18.00;99.90;;;;;;5114395;28;20433;-89
2023/11/03 11:07:58;;;;;;;0.30;0.20;;;18.10;99.90;;;;;;5115345;27;20434;-78
2023/11/03 11:10:39;;;;;;;0.30;0.30;;;18.10;99.90;;;;;;5125394;27;20776;-77
2023/11/03 11:13:17;;;;;;;2.30;1.53;;;18.20;99.90;;;;;;5111080;28;20877;-78
2023/11/03 11:16:02;;;;;;;0.30;0.20;;;18.20;99.90;;;;;;5109569;28;20409;-90
2023/11/03 11:18:31;;;;;;;0.30;0.20;;;18.30;99.90;;;;;;5112933;28;20448;-90
2023/11/03 11:21:08;;;;;;;0.30;0.20;;;18.40;99.90;;;;;;5114441;28;20895;-78
2023/11/03 11:23:38;;;;;;;0.30;0.20;;;18.50;99.90;;;;;;5114843;27;20526;-78
2023/11/03 11:26:12;;;;;;;6.63;1.50;;;18.50;99.90;;;;;;5102189;27;20415;-89
2023/11/03 11:28:39;;;;;;;0.30;0.20;;;18.60;99.90;;;;;;5104316;28;20787;-78
2023/11/03 11:31:33;;;;;;;0.30;0.20;;;18.60;99.90;;;;;;5118910;27;20618;-89
2023/11/03 11:34:14;;;;;;;0.30;0.20;;;18.60;99.90;;;;;;5100914;28;20552;-88
2023/11/03 11:36:41;;;;;;;0.30;0.20;;;18.70;99.90;;;;;;5105076;28;20433;-77
2023/11/03 11:39:28;;;;;;;0.30;0.20;;;18.70;99.90;;;;;;5107235;28;20511;-89
2023/11/03 11:41:59;;;;;;;0.50;0.47;;;18.70;99.90;;;;;;5107368;28;20421;-89
2023/11/03 11:44:27;;;;;;;0.30;0.30;;;18.80;99.90;;;;;;5106714;28;20542;-78
2023/11/03 11:46:58;;;;;;;0.30;0.20;;;18.80;99.90;;;;;;5112930;27;20425;-77
2023/11/03 11:49:27;;;;;;;0.50;0.50;;;18.90;99.90;;;;;;5086158;28;20883;-89
2023/11/03 11:51:55;;;;;;;0.30;0.20;;;18.90;99.90;;;;;;5109455;27;20774;-89
2023/11/03 11:54:22;;;;;;;0.30;0.20;;;18.90;99.90;;;;;;5105015;27;20474;-80
2023/11/03 11:56:48;;;;;;;0.30;0.20;;;18.90;99.90;;;;;;5081918;28;20415;-78
2023/11/03 11:59:19;;;;;;;1.13;1.13;;;18.90;99.90;;;;;;5088539;28;20667;-78
2023/11/03 12:01:46;;;;;;;0.30;0.30;;;18.90;99.90;;;;;;5086612;28;20575;-90
2023/11/03 12:04:13;;;;;;;0.30;0.30;;;18.80;99.90;;;;;;5083336;28;20987;-90
2023/11/03 12:06:40;;;;;;;0.30;0.20;;;18.80;99.90;;;;;;5100972;28;20425;-89
2023/11/03 12:09:09;;;;;;;0.60;0.57;;;18.80;99.90;;;;;;5083321;28;21027;-90
2023/11/03 12:11:37;;;;;;;0.30;0.20;;;18.80;99.90;;;;;;5084521;28;20446;-89
2023/11/03 12:14:03;;;;;;;0.30;0.20;;;18.80;99.90;;;;;;5094190;28;20647;-90
2023/11/03 12:16:29;;;;;;;0.30;0.20;;;18.70;99.90;;;;;;5093553;28;20422;-88
2023/11/03 12:18:55;;;;;;;0.57;0.57;;;18.60;99.90;;;;;;5097455;28;20453;-90
2023/11/03 12:21:25;;;;;;;0.93;0.93;;;18.50;99.90;;;;;;5124092;27;20185;-89
2023/11/03 12:23:59;;;;;;;0.30;0.20;;;18.30;99.90;;;;;;5120878;27;20542;-89
2023/11/03 12:26:29;;;;;;;0.40;0.40;;;18.10;99.90;;;;;;5096274;28;20566;-78
2023/11/03 12:29:31;;;;;;;0.30;0.20;;;17.90;99.90;;;;;;5083042;28;20524;-77
2023/11/03 12:32:01;;;;;;;0.30;0.20;;;17.70;99.90;;;;;;5093148;28;20414;-89
2023/11/03 12:34:27;;;;;;;2.20;2.10;;;17.50;99.90;;;;;;5089597;28;20543;-89
2023/11/03 12:36:55;;;;;;;0.30;0.20;;;17.30;99.90;;;;;;5084393;28;21052;-76
2023/11/03 12:39:22;;;;;;;0.30;0.20;;;17.20;99.90;;;;;;5094848;28;20598;-89
2023/11/03 12:42:01;;;;;;;0.30;0.20;;;17.20;99.90;;;;;;5092189;28;20405;-77
2023/11/03 12:44:27;;;;;;;0.30;0.20;;;17.10;99.90;;;;;;5097517;28;20448;-86
2023/11/03 12:46:54;;;;;;;0.30;0.20;;;17.10;99.90;;;;;;5102686;28;20418;-77
2023/11/03 12:49:23;;;;;;;0.30;0.20;;;17.10;99.90;;;;;;5107153;28;20195;-88